sensor_id;sensor_type;location;lat;lon;timestamp;pressure;altitude;pressure_sealevel;temperature;humidity
51271;BME280;37744;50.960;4.136;2022-08-06T00:00:58;102161.16;;;27.15;30.07
51271;BME280;37744;50.960;4.136;2022-08-06T00:03:24;102162.78;;;27.60;29.76
51271;BME280;37744;50.960;4.136;2022-08-06T00:05:49;102166.03;;;27.85;29.22
51271;BME280;37744;50.960;4.136;2022-08-06T00:08:15;102169.09;;;27.71;29.51
51271;BME280;37744;50.960;4.136;2022-08-06T00:10:45;102162.09;;;27.68;29.27
51271;BME280;37744;50.960;4.136;2022-08-06T00:13:11;102165.91;;;27.87;29.39
51271;BME280;37744;50.960;4.136;2022-08-06T00:15:39;102172.56;;;28.14;28.35
51271;BME280;37744;50.960;4.136;2022-08-06T00:18:05;102181.59;;;28.34;28.53
51271;BME280;37744;50.960;4.136;2022-08-06T00:20:32;102182.75;;;28.31;28.42
51271;BME280;37744;50.960;4.136;2022-08-06T00:22:58;102182.31;;;28.26;28.52
51271;BME280;37744;50.960;4.136;2022-08-06T00:25:24;102191.91;;;28.50;28.07
51271;BME280;37744;50.960;4.136;2022-08-06T00:27:49;102185.84;;;28.67;28.06
51271;BME280;37744;50.960;4.136;2022-08-06T00:30:15;102188.53;;;28.58;28.08
51271;BME280;37744;50.960;4.136;2022-08-06T00:32:40;102195.38;;;28.72;27.66
51271;BME280;37744;50.960;4.136;2022-08-06T00:35:07;102192.81;;;27.98;28.98
51271;BME280;37744;50.960;4.136;2022-08-06T00:37:32;102202.41;;;27.60;29.59
51271;BME280;37744;50.960;4.136;2022-08-06T00:39:59;102210.31;;;27.19;30.20
51271;BME280;37744;50.960;4.136;2022-08-06T00:42:27;102211.34;;;26.95;30.78
51271;BME280;37744;50.960;4.136;2022-08-06T00:44:53;102209.13;;;27.33;29.99
51271;BME280;37744;50.960;4.136;2022-08-06T00:47:19;102203.88;;;27.52;29.61
51271;BME280;37744;50.960;4.136;2022-08-06T00:49:45;102206.41;;;27.33;29.79
51271;BME280;37744;50.960;4.136;2022-08-06T00:52:15;102201.78;;;26.79;30.62
51271;BME280;37744;50.960;4.136;2022-08-06T00:54:41;102203.13;;;26.96;30.47
51271;BME280;37744;50.960;4.136;2022-08-06T00:57:06;102201.41;;;26.84;30.52
51271;BME280;37744;50.960;4.136;2022-08-06T00:59:32;102201.41;;;26.95;30.37
51271;BME280;37744;50.960;4.136;2022-08-06T01:01:58;102207.06;;;26.92;30.33
51271;BME280;37744;50.960;4.136;2022-08-06T01:04:24;102203.13;;;26.85;30.47
51271;BME280;37744;50.960;4.136;2022-08-06T01:06:49;102210.91;;;27.11;30.20
51271;BME280;37744;50.960;4.136;2022-08-06T01:09:14;102212.94;;;26.97;30.31
51271;BME280;37744;50.960;4.136;2022-08-06T01:11:40;102206.72;;;27.18;29.95
51271;BME280;37744;50.960;4.136;2022-08-06T01:14:06;102213.03;;;27.40;29.72
51271;BME280;37744;50.960;4.136;2022-08-06T01:16:47;102204.66;;;27.43;29.88
51271;BME280;37744;50.960;4.136;2022-08-06T01:24:33;102218.13;;;26.09;31.83
51271;BME280;37744;50.960;4.136;2022-08-06T01:27:28;102219.31;;;26.85;30.74
51271;BME280;37744;50.960;4.136;2022-08-06T01:30:04;102216.59;;;26.85;30.92
51271;BME280;37744;50.960;4.136;2022-08-06T01:32:35;102222.16;;;27.27;30.17
51271;BME280;37744;50.960;4.136;2022-08-06T01:35:12;102217.94;;;27.35;30.14
51271;BME280;37744;50.960;4.136;2022-08-06T01:38:11;102214.78;;;27.30;29.86
51271;BME280;37744;50.960;4.136;2022-08-06T01:40:39;102212.34;;;27.26;30.23
51271;BME280;37744;50.960;4.136;2022-08-06T01:43:11;102211.63;;;27.24;30.21
51271;BME280;37744;50.960;4.136;2022-08-06T01:45:39;102218.91;;;27.34;29.84
51271;BME280;37744;50.960;4.136;2022-08-06T01:48:09;102204.59;;;27.33;29.58
51271;BME280;37744;50.960;4.136;2022-08-06T01:50:41;102206.16;;;27.03;30.40
51271;BME280;37744;50.960;4.136;2022-08-06T01:53:08;102216.13;;;27.03;30.42
51271;BME280;37744;50.960;4.136;2022-08-06T01:55:41;102209.56;;;26.61;31.28
51271;BME280;37744;50.960;4.136;2022-08-06T01:58:09;102206.97;;;26.60;30.73
51271;BME280;37744;50.960;4.136;2022-08-06T02:00:40;102214.41;;;27.02;30.89
51271;BME280;37744;50.960;4.136;2022-08-06T02:03:11;102207.81;;;26.94;30.80
51271;BME280;37744;50.960;4.136;2022-08-06T02:05:40;102209.63;;;26.71;31.16
51271;BME280;37744;50.960;4.136;2022-08-06T02:08:07;102210.50;;;26.94;30.26
51271;BME280;37744;50.960;4.136;2022-08-06T02:10:35;102208.00;;;27.35;30.01
51271;BME280;37744;50.960;4.136;2022-08-06T02:13:02;102211.75;;;27.55;29.60
51271;BME280;37744;50.960;4.136;2022-08-06T02:15:30;102216.28;;;27.22;30.22
51271;BME280;37744;50.960;4.136;2022-08-06T02:18:05;102213.25;;;27.48;29.76
51271;BME280;37744;50.960;4.136;2022-08-06T02:20:41;102217.78;;;27.69;29.74
51271;BME280;37744;50.960;4.136;2022-08-06T02:23:12;102207.53;;;27.84;29.36
51271;BME280;37744;50.960;4.136;2022-08-06T02:25:46;102206.84;;;27.92;28.88
51271;BME280;37744;50.960;4.136;2022-08-06T02:28:14;102215.50;;;27.86;29.22
51271;BME280;37744;50.960;4.136;2022-08-06T02:30:44;102208.84;;;27.68;29.53
51271;BME280;37744;50.960;4.136;2022-08-06T02:33:11;102205.28;;;27.68;29.52
51271;BME280;37744;50.960;4.136;2022-08-06T02:35:45;102212.41;;;27.15;30.21
51271;BME280;37744;50.960;4.136;2022-08-06T02:38:26;102201.75;;;26.24;31.80
51271;BME280;37744;50.960;4.136;2022-08-06T02:41:10;102207.13;;;25.65;32.41
51271;BME280;37744;50.960;4.136;2022-08-06T02:43:39;102209.28;;;25.24;33.18
51271;BME280;37744;50.960;4.136;2022-08-06T02:46:17;102214.34;;;25.65;32.45
51271;BME280;37744;50.960;4.136;2022-08-06T02:48:52;102217.72;;;25.31;33.17
51271;BME280;37744;50.960;4.136;2022-08-06T02:51:27;102216.75;;;24.20;35.14
51271;BME280;37744;50.960;4.136;2022-08-06T02:54:22;102218.69;;;24.68;34.60
51271;BME280;37744;50.960;4.136;2022-08-06T02:56:51;102214.81;;;24.85;34.41
51271;BME280;37744;50.960;4.136;2022-08-06T02:59:23;102219.38;;;24.46;34.93
51271;BME280;37744;50.960;4.136;2022-08-06T03:01:56;102220.63;;;24.66;34.84
51271;BME280;37744;50.960;4.136;2022-08-06T03:04:23;102226.50;;;24.21;35.44
51271;BME280;37744;50.960;4.136;2022-08-06T03:06:51;102217.59;;;24.20;35.65
51271;BME280;37744;50.960;4.136;2022-08-06T03:09:19;102219.66;;;23.63;36.63
51271;BME280;37744;50.960;4.136;2022-08-06T03:11:46;102228.94;;;24.63;34.86
51271;BME280;37744;50.960;4.136;2022-08-06T03:14:14;102231.94;;;25.09;33.79
51271;BME280;37744;50.960;4.136;2022-08-06T03:16:41;102230.22;;;25.56;32.83
51271;BME280;37744;50.960;4.136;2022-08-06T03:19:08;102228.84;;;25.86;32.41
51271;BME280;37744;50.960;4.136;2022-08-06T03:21:34;102227.28;;;26.07;31.85
51271;BME280;37744;50.960;4.136;2022-08-06T03:24:01;102232.03;;;26.03;32.20
51271;BME280;37744;50.960;4.136;2022-08-06T03:26:34;102240.25;;;25.06;34.18
51271;BME280;37744;50.960;4.136;2022-08-06T03:29:00;102238.53;;;24.15;35.32
51271;BME280;37744;50.960;4.136;2022-08-06T03:31:27;102230.78;;;24.37;35.06
51271;BME280;37744;50.960;4.136;2022-08-06T03:33:53;102232.88;;;23.79;36.46
51271;BME280;37744;50.960;4.136;2022-08-06T03:36:20;102235.88;;;23.75;36.74
51271;BME280;37744;50.960;4.136;2022-08-06T03:38:53;102236.19;;;23.70;36.84
51271;BME280;37744;50.960;4.136;2022-08-06T03:41:19;102241.28;;;24.53;35.28
51271;BME280;37744;50.960;4.136;2022-08-06T03:43:46;102237.41;;;24.57;34.98
51271;BME280;37744;50.960;4.136;2022-08-06T03:46:13;102236.34;;;24.59;35.00
51271;BME280;37744;50.960;4.136;2022-08-06T03:48:43;102236.34;;;24.46;35.07
51271;BME280;37744;50.960;4.136;2022-08-06T03:51:17;102238.47;;;24.67;34.24
51271;BME280;37744;50.960;4.136;2022-08-06T03:53:45;102246.84;;;23.98;35.78
51271;BME280;37744;50.960;4.136;2022-08-06T03:56:23;102247.91;;;23.82;36.37
51271;BME280;37744;50.960;4.136;2022-08-06T03:58:52;102238.69;;;23.73;36.47
51271;BME280;37744;50.960;4.136;2022-08-06T04:01:27;102244.56;;;24.19;36.10
51271;BME280;37744;50.960;4.136;2022-08-06T04:04:13;102245.34;;;23.93;36.08
51271;BME280;37744;50.960;4.136;2022-08-06T04:06:50;102249.22;;;23.49;37.10
51271;BME280;37744;50.960;4.136;2022-08-06T04:09:23;102245.34;;;23.26;37.59
51271;BME280;37744;50.960;4.136;2022-08-06T04:11:50;102248.06;;;23.53;37.49
51271;BME280;37744;50.960;4.136;2022-08-06T04:14:17;102235.47;;;23.81;36.09
51271;BME280;37744;50.960;4.136;2022-08-06T04:16:45;102245.09;;;23.30;37.44
51271;BME280;37744;50.960;4.136;2022-08-06T04:19:14;102243.75;;;22.66;38.33
51271;BME280;37744;50.960;4.136;2022-08-06T04:21:42;102253.03;;;22.90;38.47
51271;BME280;37744;50.960;4.136;2022-08-06T04:24:11;102251.47;;;23.00;38.47
51271;BME280;37744;50.960;4.136;2022-08-06T04:26:44;102248.28;;;23.50;37.15
51271;BME280;37744;50.960;4.136;2022-08-06T04:29:17;102239.69;;;23.98;36.54
51271;BME280;37744;50.960;4.136;2022-08-06T04:31:47;102246.72;;;24.90;34.73
51271;BME280;37744;50.960;4.136;2022-08-06T04:34:24;102255.44;;;25.42;34.05
51271;BME280;37744;50.960;4.136;2022-08-06T04:36:52;102251.13;;;25.28;34.18
51271;BME280;37744;50.960;4.136;2022-08-06T04:39:21;102254.03;;;24.88;34.97
51271;BME280;37744;50.960;4.136;2022-08-06T04:41:47;102248.19;;;24.31;35.78
51271;BME280;37744;50.960;4.136;2022-08-06T04:44:14;102255.69;;;24.52;35.60
51271;BME280;37744;50.960;4.136;2022-08-06T04:46:40;102251.72;;;24.44;35.95
51271;BME280;37744;50.960;4.136;2022-08-06T04:49:08;102256.78;;;24.36;35.44
51271;BME280;37744;50.960;4.136;2022-08-06T04:51:34;102269.84;;;24.80;35.09
51271;BME280;37744;50.960;4.136;2022-08-06T04:54:04;102263.53;;;25.18;34.14
51271;BME280;37744;50.960;4.136;2022-08-06T04:56:30;102267.00;;;25.07;34.62
51271;BME280;37744;50.960;4.136;2022-08-06T04:58:56;102272.78;;;25.51;34.00
51271;BME280;37744;50.960;4.136;2022-08-06T05:01:21;102270.47;;;25.58;34.03
51271;BME280;37744;50.960;4.136;2022-08-06T05:03:48;102280.38;;;25.57;33.71
51271;BME280;37744;50.960;4.136;2022-08-06T05:06:25;102278.81;;;25.04;35.04
51271;BME280;37744;50.960;4.136;2022-08-06T05:09:00;102283.09;;;25.69;33.91
51271;BME280;37744;50.960;4.136;2022-08-06T05:12:12;102282.69;;;25.86;33.72
51271;BME280;37744;50.960;4.136;2022-08-06T05:14:27;102295.31;;;26.44;32.65
51271;BME280;37744;50.960;4.136;2022-08-06T05:16:55;102293.94;;;26.27;33.41
51271;BME280;37744;50.960;4.136;2022-08-06T05:19:33;102293.75;;;26.17;33.20
51271;BME280;37744;50.960;4.136;2022-08-06T05:22:00;102298.31;;;25.32;34.15
51271;BME280;37744;50.960;4.136;2022-08-06T05:24:29;102305.31;;;25.59;33.71
51271;BME280;37744;50.960;4.136;2022-08-06T05:26:58;102305.09;;;25.63;33.80
51271;BME280;37744;50.960;4.136;2022-08-06T05:29:26;102299.91;;;26.31;33.03
51271;BME280;37744;50.960;4.136;2022-08-06T05:31:59;102304.13;;;26.58;32.18
51271;BME280;37744;50.960;4.136;2022-08-06T05:34:31;102308.78;;;25.73;34.00
51271;BME280;37744;50.960;4.136;2022-08-06T05:36:56;102305.47;;;25.45;35.19
51271;BME280;37744;50.960;4.136;2022-08-06T05:39:23;102308.22;;;25.81;33.80
51271;BME280;37744;50.960;4.136;2022-08-06T05:41:48;102304.72;;;25.92;33.29
51271;BME280;37744;50.960;4.136;2022-08-06T05:44:14;102313.03;;;26.36;33.21
51271;BME280;37744;50.960;4.136;2022-08-06T05:46:55;102323.69;;;26.26;33.58
51271;BME280;37744;50.960;4.136;2022-08-06T05:49:27;102314.16;;;26.44;32.99
51271;BME280;37744;50.960;4.136;2022-08-06T05:52:26;102326.16;;;26.75;33.14
51271;BME280;37744;50.960;4.136;2022-08-06T05:55:06;102323.22;;;27.12;32.65
51271;BME280;37744;50.960;4.136;2022-08-06T05:57:40;102326.03;;;27.22;33.04
51271;BME280;37744;50.960;4.136;2022-08-06T06:00:09;102328.81;;;27.76;31.78
51271;BME280;37744;50.960;4.136;2022-08-06T06:02:39;102321.78;;;27.85;31.63
51271;BME280;37744;50.960;4.136;2022-08-06T06:05:07;102331.03;;;28.46;30.82
51271;BME280;37744;50.960;4.136;2022-08-06T06:07:40;102330.22;;;28.55;30.73
51271;BME280;37744;50.960;4.136;2022-08-06T06:10:07;102336.56;;;28.75;30.81
51271;BME280;37744;50.960;4.136;2022-08-06T06:12:39;102337.78;;;28.92;30.06
51271;BME280;37744;50.960;4.136;2022-08-06T06:15:06;102344.84;;;29.15;29.99
51271;BME280;37744;50.960;4.136;2022-08-06T06:23:00;102348.41;;;28.53;32.14
51271;BME280;37744;50.960;4.136;2022-08-06T06:28:26;102346.38;;;28.98;30.63
51271;BME280;37744;50.960;4.136;2022-08-06T06:30:59;102346.53;;;28.75;31.89
51271;BME280;37744;50.960;4.136;2022-08-06T06:33:47;102346.72;;;28.83;31.45
51271;BME280;37744;50.960;4.136;2022-08-06T06:36:23;102345.13;;;28.80;31.33
51271;BME280;37744;50.960;4.136;2022-08-06T06:39:04;102346.25;;;28.78;32.01
51271;BME280;37744;50.960;4.136;2022-08-06T06:41:39;102350.91;;;29.07;31.57
51271;BME280;37744;50.960;4.136;2022-08-06T06:44:14;102349.78;;;29.00;31.30
51271;BME280;37744;50.960;4.136;2022-08-06T06:46:49;102350.09;;;29.16;31.67
51271;BME280;37744;50.960;4.136;2022-08-06T06:49:32;102354.00;;;28.92;31.45
51271;BME280;37744;50.960;4.136;2022-08-06T06:52:10;102350.94;;;28.76;31.93
51271;BME280;37744;50.960;4.136;2022-08-06T06:54:46;102349.50;;;29.03;31.21
51271;BME280;37744;50.960;4.136;2022-08-06T06:57:17;102357.06;;;29.09;31.08
51271;BME280;37744;50.960;4.136;2022-08-06T06:59:47;102353.56;;;29.38;30.53
51271;BME280;37744;50.960;4.136;2022-08-06T07:02:21;102357.84;;;29.41;30.62
51271;BME280;37744;50.960;4.136;2022-08-06T07:04:47;102368.03;;;29.68;30.21
51271;BME280;37744;50.960;4.136;2022-08-06T07:07:15;102361.88;;;29.66;30.06
51271;BME280;37744;50.960;4.136;2022-08-06T07:09:42;102364.19;;;29.81;30.17
51271;BME280;37744;50.960;4.136;2022-08-06T07:12:11;102361.03;;;30.05;30.33
51271;BME280;37744;50.960;4.136;2022-08-06T07:14:38;102366.31;;;29.67;31.35
51271;BME280;37744;50.960;4.136;2022-08-06T07:17:06;102371.16;;;29.93;30.20
51271;BME280;37744;50.960;4.136;2022-08-06T07:19:33;102374.84;;;30.31;29.85
51271;BME280;37744;50.960;4.136;2022-08-06T07:21:59;102378.13;;;30.15;29.54
51271;BME280;37744;50.960;4.136;2022-08-06T07:24:27;102368.72;;;30.29;29.16
51271;BME280;37744;50.960;4.136;2022-08-06T07:26:56;102378.72;;;29.80;30.18
51271;BME280;37744;50.960;4.136;2022-08-06T07:29:25;102373.00;;;30.22;29.33
51271;BME280;37744;50.960;4.136;2022-08-06T07:31:51;102374.16;;;30.19;29.61
51271;BME280;37744;50.960;4.136;2022-08-06T07:34:19;102374.44;;;30.26;29.79
51271;BME280;37744;50.960;4.136;2022-08-06T07:36:52;102381.41;;;30.86;28.77
51271;BME280;37744;50.960;4.136;2022-08-06T07:39:32;102384.41;;;31.11;28.45
51271;BME280;37744;50.960;4.136;2022-08-06T07:42:07;102376.97;;;31.13;27.59
51271;BME280;37744;50.960;4.136;2022-08-06T07:44:38;102383.94;;;31.26;28.05
51271;BME280;37744;50.960;4.136;2022-08-06T07:47:06;102381.78;;;31.29;27.94
51271;BME280;37744;50.960;4.136;2022-08-06T07:49:40;102383.03;;;31.53;27.76
51271;BME280;37744;50.960;4.136;2022-08-06T07:52:13;102394.28;;;30.84;28.26
51271;BME280;37744;50.960;4.136;2022-08-06T07:54:41;102390.66;;;31.22;27.90
51271;BME280;37744;50.960;4.136;2022-08-06T07:57:09;102384.66;;;31.18;27.98
51271;BME280;37744;50.960;4.136;2022-08-06T07:59:36;102390.56;;;31.41;27.98
51271;BME280;37744;50.960;4.136;2022-08-06T08:02:04;102387.00;;;31.59;27.32
51271;BME280;37744;50.960;4.136;2022-08-06T08:04:30;102388.22;;;32.19;26.57
51271;BME280;37744;50.960;4.136;2022-08-06T08:07:15;102390.78;;;32.21;27.16
51271;BME280;37744;50.960;4.136;2022-08-06T08:09:42;102395.38;;;30.24;29.86
51271;BME280;37744;50.960;4.136;2022-08-06T08:12:11;102385.50;;;28.51;31.66
51271;BME280;37744;50.960;4.136;2022-08-06T08:14:37;102383.16;;;27.04;34.77
51271;BME280;37744;50.960;4.136;2022-08-06T08:17:05;102376.63;;;25.28;37.91
51271;BME280;37744;50.960;4.136;2022-08-06T08:19:34;102383.25;;;24.05;39.34
51271;BME280;37744;50.960;4.136;2022-08-06T08:22:20;102382.91;;;23.28;41.69
51271;BME280;37744;50.960;4.136;2022-08-06T08:24:46;102387.19;;;23.01;42.53
51271;BME280;37744;50.960;4.136;2022-08-06T08:27:13;102381.63;;;22.45;43.66
51271;BME280;37744;50.960;4.136;2022-08-06T08:29:42;102377.28;;;22.28;44.92
51271;BME280;37744;50.960;4.136;2022-08-06T08:32:09;102380.97;;;22.10;45.86
51271;BME280;37744;50.960;4.136;2022-08-06T08:34:35;102380.50;;;21.88;45.35
51271;BME280;37744;50.960;4.136;2022-08-06T08:37:16;102375.84;;;21.43;46.31
51271;BME280;37744;50.960;4.136;2022-08-06T08:39:42;102376.09;;;21.38;48.42
51271;BME280;37744;50.960;4.136;2022-08-06T08:42:39;102378.25;;;21.48;48.01
51271;BME280;37744;50.960;4.136;2022-08-06T08:45:15;102372.63;;;21.20;49.11
51271;BME280;37744;50.960;4.136;2022-08-06T08:47:43;102382.38;;;21.21;48.24
51271;BME280;37744;50.960;4.136;2022-08-06T08:50:14;102376.25;;;20.85;48.43
51271;BME280;37744;50.960;4.136;2022-08-06T08:52:44;102371.91;;;20.83;47.89
51271;BME280;37744;50.960;4.136;2022-08-06T08:55:12;102360.06;;;20.53;47.87
51271;BME280;37744;50.960;4.136;2022-08-06T08:57:40;102362.91;;;20.68;49.04
51271;BME280;37744;50.960;4.136;2022-08-06T09:00:07;102361.03;;;20.35;49.45
51271;BME280;37744;50.960;4.136;2022-08-06T09:02:33;102362.19;;;20.11;50.02
51271;BME280;37744;50.960;4.136;2022-08-06T09:05:02;102360.63;;;20.07;50.43
51271;BME280;37744;50.960;4.136;2022-08-06T09:07:28;102365.25;;;20.04;51.99
51271;BME280;37744;50.960;4.136;2022-08-06T09:09:54;102374.22;;;20.20;50.83
51271;BME280;37744;50.960;4.136;2022-08-06T09:12:20;102366.94;;;20.41;50.31
51271;BME280;37744;50.960;4.136;2022-08-06T09:14:47;102371.31;;;20.42;50.21
51271;BME280;37744;50.960;4.136;2022-08-06T09:17:12;102367.31;;;20.51;49.77
51271;BME280;37744;50.960;4.136;2022-08-06T09:19:39;102365.66;;;20.66;50.96
51271;BME280;37744;50.960;4.136;2022-08-06T09:22:05;102375.44;;;20.66;51.16
51271;BME280;37744;50.960;4.136;2022-08-06T09:24:31;102379.22;;;20.62;49.52
51271;BME280;37744;50.960;4.136;2022-08-06T09:29:32;102383.16;;;20.19;50.19
51271;BME280;37744;50.960;4.136;2022-08-06T09:31:59;102370.09;;;19.95;50.88
51271;BME280;37744;50.960;4.136;2022-08-06T09:34:52;102376.63;;;20.25;51.89
51271;BME280;37744;50.960;4.136;2022-08-06T09:37:27;102378.63;;;20.39;52.13
51271;BME280;37744;50.960;4.136;2022-08-06T09:39:54;102370.63;;;20.56;51.87
51271;BME280;37744;50.960;4.136;2022-08-06T09:42:36;102366.00;;;20.76;51.62
51271;BME280;37744;50.960;4.136;2022-08-06T09:45:09;102371.91;;;20.83;50.13
51271;BME280;37744;50.960;4.136;2022-08-06T09:47:37;102366.19;;;20.73;49.12
51271;BME280;37744;50.960;4.136;2022-08-06T09:50:05;102365.66;;;20.66;48.74
51271;BME280;37744;50.960;4.136;2022-08-06T09:52:32;102362.59;;;20.56;50.84
51271;BME280;37744;50.960;4.136;2022-08-06T09:54:57;102363.03;;;20.65;49.01
51271;BME280;37744;50.960;4.136;2022-08-06T09:57:24;102371.34;;;20.76;48.93
51271;BME280;37744;50.960;4.136;2022-08-06T09:59:50;102372.84;;;20.99;47.69
51271;BME280;37744;50.960;4.136;2022-08-06T10:02:18;102370.66;;;21.24;46.50
51271;BME280;37744;50.960;4.136;2022-08-06T10:04:44;102363.66;;;21.37;47.35
51271;BME280;37744;50.960;4.136;2022-08-06T10:07:10;102371.44;;;21.42;46.76
51271;BME280;37744;50.960;4.136;2022-08-06T10:09:36;102373.06;;;21.45;47.31
51271;BME280;37744;50.960;4.136;2022-08-06T10:12:20;102377.03;;;21.53;46.45
51271;BME280;37744;50.960;4.136;2022-08-06T10:14:47;102357.22;;;21.74;45.97
51271;BME280;37744;50.960;4.136;2022-08-06T10:17:18;102353.66;;;21.73;44.65
51271;BME280;37744;50.960;4.136;2022-08-06T10:19:47;102356.31;;;21.89;45.08
51271;BME280;37744;50.960;4.136;2022-08-06T10:22:15;102363.25;;;21.93;45.13
51271;BME280;37744;50.960;4.136;2022-08-06T10:24:46;102360.59;;;22.08;43.50
51271;BME280;37744;50.960;4.136;2022-08-06T10:27:19;102356.44;;;22.18;44.42
51271;BME280;37744;50.960;4.136;2022-08-06T10:29:51;102358.16;;;22.19;44.05
51271;BME280;37744;50.960;4.136;2022-08-06T10:32:32;102354.53;;;21.90;44.11
51271;BME280;37744;50.960;4.136;2022-08-06T10:35:02;102347.88;;;21.65;44.51
51271;BME280;37744;50.960;4.136;2022-08-06T10:37:32;102349.59;;;21.34;45.66
51271;BME280;37744;50.960;4.136;2022-08-06T10:40:00;102346.50;;;21.41;45.20
51271;BME280;37744;50.960;4.136;2022-08-06T10:42:27;102340.66;;;21.83;44.90
51271;BME280;37744;50.960;4.136;2022-08-06T10:44:53;102340.81;;;21.80;45.02
51271;BME280;37744;50.960;4.136;2022-08-06T10:47:20;102345.16;;;21.97;43.14
51271;BME280;37744;50.960;4.136;2022-08-06T10:49:48;102348.78;;;22.26;42.62
51271;BME280;37744;50.960;4.136;2022-08-06T10:52:13;102336.66;;;22.51;42.25
51271;BME280;37744;50.960;4.136;2022-08-06T10:54:40;102339.41;;;22.64;42.08
51271;BME280;37744;50.960;4.136;2022-08-06T10:57:07;102334.66;;;22.84;42.55
51271;BME280;37744;50.960;4.136;2022-08-06T10:59:34;102336.44;;;22.84;42.30
51271;BME280;37744;50.960;4.136;2022-08-06T11:02:19;102350.72;;;22.99;42.46
51271;BME280;37744;50.960;4.136;2022-08-06T11:05:00;102350.59;;;22.57;41.99
51271;BME280;37744;50.960;4.136;2022-08-06T11:10:30;102350.41;;;21.84;41.68
51271;BME280;37744;50.960;4.136;2022-08-06T11:15:35;102346.09;;;22.12;41.35
51271;BME280;37744;50.960;4.136;2022-08-06T11:18:11;102332.19;;;22.36;41.77
51271;BME280;37744;50.960;4.136;2022-08-06T11:20:39;102328.44;;;22.55;41.40
51271;BME280;37744;50.960;4.136;2022-08-06T11:25:43;102324.41;;;22.76;40.97
51271;BME280;37744;50.960;4.136;2022-08-06T11:28:10;102327.38;;;22.57;40.62
51271;BME280;37744;50.960;4.136;2022-08-06T11:30:44;102325.84;;;22.22;41.42
51271;BME280;37744;50.960;4.136;2022-08-06T11:33:11;102324.34;;;22.47;42.74
51271;BME280;37744;50.960;4.136;2022-08-06T11:38:04;102324.69;;;22.57;39.00
51271;BME280;37744;50.960;4.136;2022-08-06T11:40:56;102327.28;;;22.88;39.24
51271;BME280;37744;50.960;4.136;2022-08-06T11:46:26;102323.84;;;22.26;39.99
51271;BME280;37744;50.960;4.136;2022-08-06T11:54:28;102312.25;;;23.42;38.23
51271;BME280;37744;50.960;4.136;2022-08-06T11:59:36;102314.25;;;23.93;36.88
51271;BME280;37744;50.960;4.136;2022-08-06T12:02:09;102309.66;;;23.95;35.28
51271;BME280;37744;50.960;4.136;2022-08-06T12:07:29;102300.63;;;24.49;35.32
51271;BME280;37744;50.960;4.136;2022-08-06T12:12:45;102301.03;;;24.17;36.68
51271;BME280;37744;50.960;4.136;2022-08-06T12:17:37;102295.81;;;23.19;36.57
51271;BME280;37744;50.960;4.136;2022-08-06T12:20:04;102298.22;;;23.38;36.25
51271;BME280;37744;50.960;4.136;2022-08-06T12:22:32;102295.78;;;23.88;36.10
51271;BME280;37744;50.960;4.136;2022-08-06T12:24:58;102286.97;;;23.73;35.00
51271;BME280;37744;50.960;4.136;2022-08-06T12:27:32;102285.00;;;24.03;34.01
51271;BME280;37744;50.960;4.136;2022-08-06T12:29:59;102282.56;;;24.39;35.05
51271;BME280;37744;50.960;4.136;2022-08-06T12:32:26;102284.28;;;24.66;35.23
51271;BME280;37744;50.960;4.136;2022-08-06T12:34:54;102282.28;;;25.07;34.90
51271;BME280;37744;50.960;4.136;2022-08-06T12:37:20;102281.69;;;25.39;34.27
51271;BME280;37744;50.960;4.136;2022-08-06T12:39:46;102279.53;;;25.57;33.38
51271;BME280;37744;50.960;4.136;2022-08-06T12:42:31;102280.34;;;25.09;33.46
51271;BME280;37744;50.960;4.136;2022-08-06T12:44:57;102292.03;;;24.31;35.38
51271;BME280;37744;50.960;4.136;2022-08-06T12:47:23;102291.06;;;23.79;35.18
51271;BME280;37744;50.960;4.136;2022-08-06T12:49:52;102286.63;;;23.37;35.30
51271;BME280;37744;50.960;4.136;2022-08-06T12:52:19;102285.06;;;23.06;34.95
51271;BME280;37744;50.960;4.136;2022-08-06T12:54:48;102276.88;;;23.36;34.72
51271;BME280;37744;50.960;4.136;2022-08-06T12:57:24;102273.53;;;24.14;34.31
51271;BME280;37744;50.960;4.136;2022-08-06T12:59:52;102270.41;;;24.59;33.64
51271;BME280;37744;50.960;4.136;2022-08-06T13:02:19;102266.91;;;24.96;33.39
51271;BME280;37744;50.960;4.136;2022-08-06T13:04:48;102264.66;;;25.27;32.22
51271;BME280;37744;50.960;4.136;2022-08-06T13:07:15;102265.00;;;25.71;31.92
51271;BME280;37744;50.960;4.136;2022-08-06T13:09:43;102271.47;;;26.15;31.76
51271;BME280;37744;50.960;4.136;2022-08-06T13:12:12;102275.03;;;25.20;32.50
51271;BME280;37744;50.960;4.136;2022-08-06T13:14:49;102267.28;;;24.52;33.47
51271;BME280;37744;50.960;4.136;2022-08-06T13:17:15;102268.59;;;24.20;33.86
51271;BME280;37744;50.960;4.136;2022-08-06T13:19:51;102264.50;;;24.02;34.41
51271;BME280;37744;50.960;4.136;2022-08-06T13:22:17;102263.88;;;24.37;33.81
51271;BME280;37744;50.960;4.136;2022-08-06T13:24:42;102266.28;;;25.29;32.86
51271;BME280;37744;50.960;4.136;2022-08-06T13:27:07;102263.84;;;24.63;33.76
51271;BME280;37744;50.960;4.136;2022-08-06T13:29:33;102268.72;;;24.19;34.93
51271;BME280;37744;50.960;4.136;2022-08-06T13:32:04;102264.25;;;23.79;35.42
51271;BME280;37744;50.960;4.136;2022-08-06T13:34:48;102264.59;;;23.60;36.42
51271;BME280;37744;50.960;4.136;2022-08-06T13:37:17;102263.91;;;23.43;36.57
51271;BME280;37744;50.960;4.136;2022-08-06T13:39:52;102262.13;;;23.29;36.12
51271;BME280;37744;50.960;4.136;2022-08-06T13:42:17;102260.13;;;23.18;36.63
51271;BME280;37744;50.960;4.136;2022-08-06T13:44:45;102257.22;;;22.94;37.06
51271;BME280;37744;50.960;4.136;2022-08-06T13:47:12;102257.88;;;22.98;37.89
51271;BME280;37744;50.960;4.136;2022-08-06T13:49:42;102260.66;;;22.96;37.27
51271;BME280;37744;50.960;4.136;2022-08-06T13:52:07;102254.09;;;23.15;36.89